createdAt,value
2018-07-21T00:02:14.870Z,8.10
2018-07-21T00:04:48.667Z,10.13
2018-07-21T00:07:16.742Z,10.97
2018-07-21T00:09:45.136Z,8.00
2018-07-21T00:12:18.869Z,10.87
2018-07-21T00:14:46.920Z,12.53
2018-07-21T00:17:18.907Z,38.40
2018-07-21T00:19:48.433Z,14.77
2018-07-21T00:22:18.046Z,14.30
2018-07-21T00:24:47.953Z,9.40
2018-07-21T00:27:16.010Z,7.20
2018-07-21T00:29:44.063Z,10.63
2018-07-21T00:32:17.656Z,7.93
2018-07-21T00:34:45.693Z,13.20
2018-07-21T00:37:13.772Z,10.50
2018-07-21T00:39:41.866Z,10.57
2018-07-21T00:42:17.448Z,7.93
2018-07-21T00:44:45.288Z,13.73
2018-07-21T00:47:13.337Z,11.80
2018-07-21T00:49:47.141Z,5.07
2018-07-21T00:52:18.408Z,10.93
2018-07-21T00:54:46.493Z,9.30
2018-07-21T00:57:14.561Z,10.97
2018-07-21T00:59:42.636Z,5.90
2018-07-21T01:02:10.694Z,8.00
2018-07-21T01:04:48.795Z,7.57
2018-07-21T01:10:08.813Z,11.17
2018-07-21T01:12:38.550Z,11.70
2018-07-21T01:15:07.743Z,8.07
2018-07-21T01:17:35.761Z,8.03
2018-07-21T01:20:04.952Z,8.83
2018-07-21T01:22:39.005Z,5.73
2018-07-21T01:25:07.314Z,6.53
2018-07-21T01:27:35.357Z,8.57
2018-07-21T01:30:03.386Z,8.93
2018-07-21T01:32:37.164Z,10.83
2018-07-21T01:35:05.205Z,9.93
2018-07-21T01:37:33.241Z,7.70
2018-07-21T01:40:01.326Z,11.17
2018-07-21T01:42:29.385Z,12.43
2018-07-21T01:45:07.139Z,8.10
2018-07-21T01:47:38.588Z,10.40
2018-07-21T01:50:07.447Z,10.73
2018-07-21T01:52:35.505Z,11.07
2018-07-21T01:55:03.610Z,9.50
2018-07-21T01:57:31.658Z,8.53
2018-07-21T02:00:07.837Z,7.07
2018-07-21T02:02:35.953Z,7.73
2018-07-21T02:05:07.816Z,6.53
2018-07-21T02:07:37.717Z,9.03
2018-07-21T02:10:09.326Z,8.07
2018-07-21T02:12:37.440Z,8.07
2018-07-21T02:15:05.486Z,6.37
2018-07-21T02:17:33.557Z,9.23
2018-07-21T02:20:08.178Z,7.23
2018-07-21T02:22:36.230Z,8.33
2018-07-21T02:25:04.274Z,6.07
2018-07-21T02:27:37.928Z,6.60
2018-07-21T02:30:06.328Z,7.00
2018-07-21T02:32:34.422Z,9.77
2018-07-21T02:35:02.487Z,7.40
2018-07-21T02:37:37.029Z,7.87
2018-07-21T02:40:08.593Z,9.67
2018-07-21T02:42:38.400Z,7.80
2018-07-21T02:45:08.285Z,6.90
2018-07-21T02:47:36.360Z,15.17
2018-07-21T02:50:07.945Z,6.13
2018-07-21T02:52:37.634Z,6.53
2018-07-21T02:55:07.432Z,9.37
2018-07-21T02:57:39.339Z,5.90
2018-07-21T03:00:07.429Z,5.90
2018-07-21T03:02:35.534Z,6.03
2018-07-21T03:05:03.388Z,7.50
2018-07-21T03:07:31.416Z,7.73
2018-07-21T03:10:07.872Z,8.37
2018-07-21T03:12:35.866Z,6.07
2018-07-21T03:15:07.565Z,7.00
2018-07-21T03:17:35.628Z,8.80
2018-07-21T03:20:09.809Z,8.27
2018-07-21T03:22:47.549Z,5.80
2018-07-21T03:25:15.678Z,6.40
2018-07-21T03:27:43.777Z,6.07
2018-07-21T03:30:11.825Z,8.03
2018-07-21T03:32:47.312Z,6.03
2018-07-21T03:35:15.428Z,6.07
2018-07-21T03:37:47.481Z,6.40
2018-07-21T03:40:15.533Z,6.37
2018-07-21T03:42:49.685Z,7.20
2018-07-21T03:45:27.409Z,6.40
2018-07-21T03:47:58.688Z,7.30
2018-07-21T03:50:26.568Z,5.83
2018-07-21T03:52:54.649Z,5.10
2018-07-21T03:55:22.686Z,10.60
2018-07-21T03:57:50.766Z,6.00
2018-07-21T04:00:18.817Z,7.00
2018-07-21T04:02:48.245Z,7.97
2018-07-21T04:05:17.967Z,11.10
2018-07-21T04:07:47.966Z,11.23
2018-07-21T04:10:17.062Z,9.07
2018-07-21T04:12:45.164Z,5.80
2018-07-21T04:15:13.259Z,10.40
2018-07-21T04:17:41.376Z,11.63
2018-07-21T04:20:17.759Z,9.23
2018-07-21T04:22:45.808Z,6.40
2018-07-21T04:25:13.869Z,8.10
2018-07-21T04:27:48.025Z,5.83
2018-07-21T04:30:16.106Z,5.93
2018-07-21T04:32:48.113Z,6.37
2018-07-21T04:35:16.424Z,6.90
2018-07-21T04:37:47.744Z,4.33
2018-07-21T04:40:15.787Z,5.93
2018-07-21T04:42:49.398Z,6.77
2018-07-21T04:45:17.766Z,10.97
2018-07-21T04:47:49.016Z,13.87
2018-07-21T04:50:17.910Z,8.77
2018-07-21T04:52:47.802Z,7.57
2018-07-21T04:55:16.037Z,10.30
2018-07-21T04:57:49.875Z,11.80
2018-07-21T05:00:17.948Z,6.63
2018-07-21T05:02:46.011Z,6.13
2018-07-21T05:05:14.130Z,5.70
2018-07-21T05:07:42.980Z,8.23
2018-07-21T05:10:11.089Z,7.50
2018-07-21T05:12:47.404Z,8.90
2018-07-21T05:15:15.571Z,7.53
2018-07-21T05:17:43.688Z,8.73
2018-07-21T05:20:17.551Z,7.20
2018-07-21T05:22:45.623Z,5.77
2018-07-21T05:25:17.844Z,7.40
2018-07-21T05:27:45.930Z,8.93
2018-07-21T05:30:19.634Z,4.87
2018-07-21T05:32:47.720Z,4.57
2018-07-21T05:35:17.890Z,6.37
2018-07-21T05:37:46.018Z,5.83
2018-07-21T05:40:19.746Z,5.27
2018-07-21T05:42:47.830Z,3.65
2018-07-21T05:45:17.778Z,4.72
2018-07-21T05:47:45.838Z,3.00
2018-07-21T05:50:13.912Z,5.87
2018-07-21T05:52:42.058Z,7.28
2018-07-21T05:55:17.492Z,5.42
2018-07-21T05:57:45.580Z,3.95
2018-07-21T06:00:14.037Z,6.20
2018-07-21T06:02:48.511Z,7.80
2018-07-21T06:05:16.603Z,4.53
2018-07-21T06:07:44.663Z,6.28
2018-07-21T06:10:18.903Z,5.30
2018-07-21T06:12:48.001Z,4.20
2018-07-21T06:15:17.761Z,5.78
2018-07-21T06:17:45.819Z,6.00
2018-07-21T06:20:14.045Z,4.58
2018-07-21T06:22:47.646Z,4.80
2018-07-21T06:25:18.797Z,3.58
2018-07-21T06:27:47.666Z,3.65
2018-07-21T06:30:17.659Z,9.13
2018-07-21T06:32:47.485Z,6.58
2018-07-21T06:35:15.606Z,4.85
2018-07-21T06:37:43.853Z,5.05
2018-07-21T06:40:11.918Z,4.70
2018-07-21T06:42:40.041Z,3.40
2018-07-21T06:45:08.113Z,7.87
2018-07-21T06:47:37.361Z,3.67
2018-07-21T06:50:05.774Z,5.78
2018-07-21T06:52:33.862Z,3.72
2018-07-21T06:55:11.078Z,5.05
2018-07-21T06:57:39.749Z,3.92
2018-07-21T07:00:07.704Z,4.72
2018-07-21T07:02:35.870Z,5.97
2018-07-21T07:05:03.941Z,3.50
2018-07-21T07:07:37.975Z,5.03
2018-07-21T07:10:06.376Z,7.22
2018-07-21T07:12:38.119Z,4.42
2018-07-21T07:15:06.182Z,4.00
2018-07-21T07:17:34.322Z,4.62
2018-07-21T07:20:08.420Z,5.20
2018-07-21T07:22:37.699Z,3.27
2018-07-21T07:25:07.522Z,5.05
2018-07-21T07:27:35.688Z,4.30
2018-07-21T07:30:09.705Z,4.92
2018-07-21T07:32:37.746Z,4.30
2018-07-21T07:35:05.832Z,2.70
2018-07-21T07:37:39.642Z,3.47
2018-07-21T07:40:17.512Z,4.55
2018-07-21T07:42:45.613Z,3.42
2018-07-21T07:45:19.257Z,4.37
2018-07-21T07:47:48.233Z,6.55
2018-07-21T07:50:16.281Z,5.05
2018-07-21T07:52:47.661Z,3.27
2018-07-21T07:55:17.759Z,4.03
2018-07-21T07:57:45.838Z,3.35
2018-07-21T08:00:19.724Z,6.15
2018-07-21T08:02:57.547Z,4.92
2018-07-21T08:05:25.589Z,5.03
2018-07-21T08:07:59.211Z,4.50
2018-07-21T08:10:27.809Z,4.72
2018-07-21T08:12:55.975Z,7.05
2018-07-21T08:15:29.637Z,5.28
2018-07-21T08:17:57.721Z,6.05
2018-07-21T08:20:26.913Z,6.55
2018-07-21T08:22:55.030Z,3.58
2018-07-21T08:25:23.105Z,9.80
2018-07-21T08:27:51.290Z,5.12
2018-07-21T08:30:28.865Z,9.65
2018-07-21T08:32:58.315Z,4.15
2018-07-21T08:35:26.563Z,4.40
2018-07-21T08:37:54.645Z,8.00
2018-07-21T08:40:22.819Z,7.00
2018-07-21T08:42:50.949Z,4.80
2018-07-21T08:45:19.191Z,3.67
2018-07-21T08:47:47.439Z,8.10
2018-07-21T08:50:15.493Z,4.42
2018-07-21T08:52:44.027Z,5.47
2018-07-21T08:55:12.181Z,3.92
2018-07-21T08:57:40.441Z,7.78
2018-07-21T09:00:18.791Z,5.50
2018-07-21T09:02:47.006Z,6.45
2018-07-21T09:05:15.378Z,6.40
2018-07-21T09:07:44.457Z,5.03
2018-07-21T09:10:12.384Z,11.57
2018-07-21T09:12:47.344Z,3.70
2018-07-21T09:15:15.570Z,5.05
2018-07-21T09:17:43.766Z,5.62
2018-07-21T09:20:11.888Z,4.45
2018-07-21T09:22:47.206Z,6.60
2018-07-21T09:25:15.287Z,7.10
2018-07-21T09:27:43.480Z,5.42
2018-07-21T09:30:11.564Z,3.72
2018-07-21T09:32:47.796Z,6.05
2018-07-21T09:35:19.123Z,6.10
2018-07-21T09:37:47.892Z,4.30
2018-07-21T09:40:16.076Z,5.00
2018-07-21T09:42:49.583Z,4.40
2018-07-21T09:45:17.960Z,8.53
2018-07-21T09:47:46.095Z,4.58
2018-07-21T09:50:14.298Z,6.00
2018-07-21T09:52:42.573Z,9.20
2018-07-21T09:55:10.660Z,7.87
2018-07-21T09:57:39.254Z,4.83
2018-07-21T10:00:09.717Z,4.42
2018-07-21T10:02:38.039Z,3.80
2018-07-21T10:05:06.138Z,5.47
2018-07-21T10:07:34.539Z,6.85
2018-07-21T10:10:02.848Z,5.53
2018-07-21T10:12:30.926Z,8.33
2018-07-21T10:14:59.119Z,7.58
2018-07-21T10:17:28.455Z,3.47
2018-07-21T10:19:58.217Z,5.37
2018-07-21T10:22:26.384Z,6.50
2018-07-21T10:25:02.966Z,5.65
2018-07-21T10:27:43.185Z,7.00
2018-07-21T10:30:17.431Z,4.15
2018-07-21T10:32:45.518Z,7.78
2018-07-21T10:35:13.584Z,6.92
2018-07-21T10:37:41.662Z,5.10
2018-07-21T10:40:09.737Z,6.40
2018-07-21T10:42:48.061Z,8.28
2018-07-21T10:45:16.645Z,4.42
2018-07-21T10:47:44.973Z,5.33
2018-07-21T10:50:13.400Z,6.50
2018-07-21T10:52:41.576Z,4.83
2018-07-21T10:55:09.697Z,5.87
2018-07-21T10:57:47.700Z,7.30
2018-07-21T11:00:15.850Z,8.10
2018-07-21T11:02:44.559Z,5.70
2018-07-21T11:05:19.118Z,5.58
2018-07-21T11:07:47.421Z,6.45
2018-07-21T11:10:19.447Z,4.10
2018-07-21T11:12:47.630Z,7.35
2018-07-21T11:15:18.057Z,5.20
2018-07-21T11:17:46.421Z,5.05
2018-07-21T11:20:14.727Z,6.50
2018-07-21T11:22:43.885Z,5.50
2018-07-21T11:25:12.695Z,6.87
2018-07-21T11:27:47.953Z,5.92
2018-07-21T11:30:16.219Z,5.75
2018-07-21T11:32:48.302Z,4.10
2018-07-21T11:35:17.289Z,6.10
2018-07-21T11:37:45.359Z,9.28
2018-07-21T11:40:19.575Z,5.20
2018-07-21T11:42:47.829Z,4.17
2018-07-21T11:45:16.413Z,5.12
2018-07-21T11:47:44.768Z,6.97
2018-07-21T11:50:13.005Z,7.10
2018-07-21T11:52:41.497Z,5.15
2018-07-21T11:55:09.760Z,5.45
2018-07-21T11:57:48.287Z,5.60
2018-07-21T12:00:17.773Z,7.75
2018-07-21T12:02:46.076Z,4.65
2018-07-21T12:05:18.283Z,5.92
2018-07-21T12:07:46.560Z,5.87
2018-07-21T12:10:14.886Z,5.35
2018-07-21T12:12:43.294Z,5.12
2018-07-21T12:15:18.306Z,6.37
2018-07-21T12:17:46.565Z,4.62
2018-07-21T12:20:14.798Z,5.90
2018-07-21T12:22:43.385Z,6.53
2018-07-21T12:25:11.933Z,4.58
2018-07-21T12:27:40.108Z,6.42
2018-07-21T12:30:18.442Z,10.68
2018-07-21T12:32:46.742Z,7.83
2018-07-21T12:35:18.714Z,7.22
2018-07-21T12:37:47.039Z,4.37
2018-07-21T12:40:20.078Z,8.13
2018-07-21T12:42:49.177Z,6.05
2018-07-21T12:45:18.584Z,4.80
2018-07-21T12:47:48.193Z,6.45
2018-07-21T12:50:17.909Z,5.15
2018-07-21T12:52:46.260Z,8.30
2018-07-21T12:55:14.565Z,6.25
2018-07-21T12:57:43.481Z,5.28
2018-07-21T13:00:11.783Z,6.10
2018-07-21T13:02:47.949Z,6.03
2018-07-21T13:05:16.491Z,6.08
2018-07-21T13:07:44.858Z,6.80
2018-07-21T13:10:13.078Z,8.08
2018-07-21T13:12:46.342Z,10.85
2018-07-21T13:15:14.591Z,7.05
2018-07-21T13:17:42.577Z,6.72
2018-07-21T13:20:17.756Z,6.55
2018-07-21T13:22:46.489Z,7.08
2018-07-21T13:25:18.073Z,7.08
2018-07-21T13:27:46.599Z,5.78
2018-07-21T13:30:15.191Z,6.08
2018-07-21T13:32:49.758Z,8.25
2018-07-21T13:35:18.186Z,5.60
2018-07-21T13:37:46.250Z,6.60
2018-07-21T13:40:19.868Z,5.62
2018-07-21T13:42:57.849Z,9.10
2018-07-21T13:45:26.208Z,8.05
2018-07-21T13:47:57.780Z,8.80
2018-07-21T13:50:26.215Z,6.28
2018-07-21T13:52:54.394Z,8.75
2018-07-21T13:55:22.679Z,9.05
2018-07-21T13:57:51.670Z,7.28
2018-07-21T14:00:27.705Z,8.30
2018-07-21T14:02:55.906Z,8.05
2018-07-21T14:05:24.196Z,6.92
2018-07-21T14:07:52.446Z,6.25
2018-07-21T14:10:20.877Z,7.80
2018-07-21T14:12:57.068Z,6.10
2018-07-21T14:15:25.285Z,6.87
2018-07-21T14:17:53.471Z,6.08
2018-07-21T14:20:21.695Z,6.08
2018-07-21T14:22:57.290Z,9.20
2018-07-21T14:25:25.567Z,5.70
2018-07-21T14:27:57.818Z,6.53
2018-07-21T14:30:26.011Z,8.60
2018-07-21T14:32:54.132Z,7.83
2018-07-21T14:35:27.853Z,5.87
2018-07-21T14:37:58.066Z,7.37
2018-07-21T14:40:27.906Z,6.85
2018-07-21T14:42:59.533Z,9.28
2018-07-21T14:45:27.977Z,7.28
2018-07-21T14:47:58.266Z,9.13
2018-07-21T14:50:26.546Z,6.47
2018-07-21T14:52:58.745Z,7.42
2018-07-21T14:55:28.646Z,6.50
2018-07-21T14:57:56.801Z,6.95
2018-07-21T15:00:25.021Z,6.37
2018-07-21T15:02:53.263Z,6.12
2018-07-21T15:05:27.712Z,6.47
2018-07-21T15:07:55.946Z,7.12
2018-07-21T15:10:24.228Z,6.58
2018-07-21T15:12:58.748Z,6.00
2018-07-21T15:15:27.358Z,6.58
2018-07-21T15:17:59.086Z,6.80
2018-07-21T15:20:27.518Z,8.05
2018-07-21T15:22:56.280Z,7.08
2018-07-21T15:25:28.142Z,9.08
2018-07-21T15:27:57.760Z,12.43
2018-07-21T15:30:29.301Z,7.12
2018-07-21T15:32:57.653Z,6.83
2018-07-21T15:35:26.921Z,7.35
2018-07-21T15:37:55.315Z,7.72
2018-07-21T15:40:29.970Z,8.25
2018-07-21T15:43:07.755Z,7.12
2018-07-21T15:45:37.805Z,6.65
2018-07-21T15:48:09.675Z,8.30
2018-07-21T15:50:47.865Z,8.13
2018-07-21T15:53:16.111Z,9.28
2018-07-21T15:55:44.393Z,7.05
2018-07-21T15:58:12.658Z,8.83
2018-07-21T16:00:47.135Z,7.95
2018-07-21T16:03:15.577Z,6.90
2018-07-21T16:05:43.834Z,6.80
2018-07-21T16:08:18.403Z,7.35
2018-07-21T16:10:47.951Z,6.17
2018-07-21T16:13:16.509Z,7.00
2018-07-21T16:15:48.693Z,9.33
2018-07-21T16:18:17.750Z,6.90
2018-07-21T16:20:45.723Z,7.50
2018-07-21T16:23:19.704Z,9.28
2018-07-21T16:25:47.845Z,6.33
2018-07-21T16:28:18.792Z,11.55
2018-07-21T16:30:47.866Z,6.65
2018-07-21T16:33:17.853Z,8.15
2018-07-21T16:35:46.091Z,7.22
2018-07-21T16:38:14.640Z,7.97
2018-07-21T16:40:42.876Z,6.53
2018-07-21T16:43:11.009Z,7.62
2018-07-21T16:45:47.505Z,9.60
2018-07-21T16:48:15.952Z,12.05
2018-07-21T16:50:50.248Z,7.53
2018-07-21T16:53:29.231Z,8.20
2018-07-21T16:55:58.157Z,8.00
2018-07-21T16:58:26.756Z,7.40
2018-07-21T17:03:48.139Z,7.25
2018-07-21T17:06:16.422Z,8.53
2018-07-21T17:08:44.685Z,7.87
2018-07-21T17:11:12.893Z,7.05
2018-07-21T17:13:41.100Z,6.83
2018-07-21T17:16:19.513Z,6.78
2018-07-21T17:18:47.706Z,9.25
2018-07-21T17:21:16.060Z,7.33
2018-07-21T17:23:44.314Z,11.48
2018-07-21T17:26:18.680Z,10.03
2018-07-21T17:28:48.175Z,8.53
2018-07-21T17:31:16.658Z,7.50
2018-07-21T17:33:48.456Z,9.30
2018-07-21T17:36:16.653Z,8.53
2018-07-21T17:38:45.009Z,8.98
2018-07-21T17:41:19.011Z,7.72
2018-07-21T17:43:48.261Z,8.50
2018-07-21T17:46:17.857Z,10.68
2018-07-21T17:48:45.927Z,7.78
2018-07-21T17:51:14.213Z,7.00
2018-07-21T17:53:42.557Z,10.15
2018-07-21T17:56:10.797Z,7.40
2018-07-21T17:58:48.532Z,8.33
2018-07-21T18:01:16.861Z,8.68
2018-07-21T18:03:45.053Z,8.73
2018-07-21T18:06:13.322Z,7.03
2018-07-21T18:08:47.490Z,6.80
2018-07-21T18:11:19.457Z,7.30
2018-07-21T18:13:48.366Z,6.60
2018-07-21T18:16:16.939Z,7.37
2018-07-21T18:18:49.014Z,8.08
2018-07-21T18:21:17.919Z,8.03
2018-07-21T18:23:49.642Z,10.78
2018-07-21T18:26:27.768Z,7.72
2018-07-21T18:28:56.100Z,7.97
2018-07-21T18:31:24.472Z,8.33
2018-07-21T18:33:52.925Z,9.73
2018-07-21T18:36:28.079Z,7.95
2018-07-21T18:38:56.214Z,7.95
2018-07-21T18:41:25.179Z,8.45
2018-07-21T18:43:53.507Z,8.15
2018-07-21T18:46:21.687Z,8.63
2018-07-21T18:48:57.969Z,7.35
2018-07-21T18:51:27.927Z,9.90
2018-07-21T18:53:59.611Z,7.55
2018-07-21T18:56:40.277Z,10.38
2018-07-21T18:59:20.781Z,11.85
2018-07-21T19:01:58.807Z,11.15
2018-07-21T19:04:26.958Z,16.37
2018-07-21T19:06:55.293Z,14.35
2018-07-21T19:09:23.531Z,9.48
2018-07-21T19:12:03.439Z,9.83
2018-07-21T19:14:31.627Z,10.77
2018-07-21T19:17:08.234Z,13.70
2018-07-21T19:19:41.889Z,9.97
2018-07-21T19:22:17.526Z,14.03
2018-07-21T19:24:45.688Z,10.60
2018-07-21T19:27:19.102Z,16.83
2018-07-21T19:29:47.936Z,10.40
2018-07-21T19:32:25.026Z,12.47
2018-07-21T19:34:53.150Z,13.93
2018-07-21T19:37:33.029Z,15.77
2018-07-21T19:40:01.195Z,12.20
2018-07-21T19:42:29.331Z,16.57
2018-07-21T19:45:07.405Z,12.17
2018-07-21T19:47:35.779Z,11.93
2018-07-21T19:50:03.869Z,17.40
2018-07-21T19:52:31.994Z,14.93
2018-07-21T19:55:00.160Z,13.40
2018-07-21T19:57:38.572Z,14.50
2018-07-21T20:00:06.720Z,14.97
2018-07-21T20:02:35.496Z,14.37
2018-07-21T20:05:09.818Z,11.33
2018-07-21T20:07:47.573Z,13.60
2018-07-21T20:13:07.284Z,12.03
2018-07-21T20:15:35.639Z,13.27
2018-07-21T20:18:03.929Z,11.33
2018-07-21T20:20:32.032Z,11.70
2018-07-21T20:23:07.423Z,11.97
2018-07-21T20:25:35.672Z,10.37
2018-07-21T20:28:09.723Z,15.47
2018-07-21T20:30:37.840Z,13.13
2018-07-21T20:33:09.604Z,11.67
2018-07-21T20:35:37.711Z,12.20
2018-07-21T20:38:08.950Z,16.23
2018-07-21T20:40:37.274Z,11.60
2018-07-21T20:43:05.465Z,15.43
2018-07-21T20:45:39.587Z,12.67
2018-07-21T20:48:18.144Z,13.47
2018-07-21T20:50:46.255Z,13.63
2018-07-21T20:53:18.254Z,11.53
2018-07-21T20:55:46.436Z,12.20
2018-07-21T20:58:18.503Z,10.70
2018-07-21T21:00:48.268Z,11.17
2018-07-21T21:03:16.404Z,13.13
2018-07-21T21:05:48.334Z,13.07
2018-07-21T21:08:18.106Z,12.07
2018-07-21T21:10:48.083Z,11.63
2018-07-21T21:13:17.971Z,10.30
2018-07-21T21:15:46.087Z,11.10
2018-07-21T21:18:17.873Z,9.90
2018-07-21T21:20:46.036Z,10.43
2018-07-21T21:23:14.150Z,12.13
2018-07-21T21:25:42.472Z,12.17
2018-07-21T21:28:17.132Z,10.67
2018-07-21T21:30:45.328Z,10.60
2018-07-21T21:33:13.483Z,12.10
2018-07-21T21:35:47.263Z,12.13
2018-07-21T21:38:15.445Z,12.10
2018-07-21T21:40:49.572Z,15.97
2018-07-21T21:43:27.213Z,14.20
2018-07-21T21:45:55.383Z,16.00
2018-07-21T21:48:23.620Z,14.83
2018-07-21T21:50:51.643Z,12.63
2018-07-21T21:53:28.057Z,13.37
2018-07-21T21:55:56.186Z,11.40
2018-07-21T21:58:24.358Z,11.67
2018-07-21T22:01:05.231Z,10.87
2018-07-21T22:03:33.287Z,12.03
2018-07-21T22:06:07.641Z,12.43
2018-07-21T22:08:35.862Z,10.67
2018-07-21T22:11:04.274Z,9.63
2018-07-21T22:13:32.173Z,9.80
2018-07-21T22:16:00.665Z,14.10
2018-07-21T22:18:38.617Z,13.40
2018-07-21T22:21:06.694Z,19.50
2018-07-21T22:23:34.795Z,13.80
2018-07-21T22:26:03.006Z,12.17
2018-07-21T22:28:31.096Z,14.13
2018-07-21T22:30:59.186Z,11.13
2018-07-21T22:33:27.249Z,10.00
2018-07-21T22:35:55.353Z,14.07
2018-07-21T22:38:23.454Z,9.80
2018-07-21T22:40:57.954Z,13.80
2018-07-21T22:43:26.260Z,13.57
2018-07-21T22:45:54.501Z,15.57
2018-07-21T22:48:22.560Z,13.83
2018-07-21T22:50:57.538Z,11.43
2018-07-21T22:53:25.680Z,10.10
2018-07-21T22:55:57.076Z,10.33
2018-07-21T22:58:25.109Z,11.87
2018-07-21T23:00:53.247Z,12.73
2018-07-21T23:03:21.401Z,10.80
2018-07-21T23:05:57.523Z,9.23
2018-07-21T23:08:25.615Z,12.03
2018-07-21T23:10:53.690Z,10.83
2018-07-21T23:13:21.741Z,9.50
2018-07-21T23:15:49.930Z,12.67
2018-07-21T23:18:18.007Z,13.77
2018-07-21T23:20:46.100Z,14.23
2018-07-21T23:23:19.743Z,10.20
2018-07-21T23:25:58.217Z,11.57
2018-07-21T23:28:26.357Z,12.97
2018-07-21T23:30:54.485Z,13.57
2018-07-21T23:33:22.585Z,15.60
2018-07-21T23:35:50.702Z,15.33
2018-07-21T23:38:34.170Z,10.83
2018-07-21T23:41:08.498Z,13.53
2018-07-21T23:43:37.919Z,15.27
2018-07-21T23:46:06.050Z,13.10
2018-07-21T23:48:34.142Z,14.43
2018-07-21T23:51:02.233Z,13.07
2018-07-21T23:53:37.052Z,15.13
2018-07-21T23:56:05.303Z,11.90
2018-07-21T23:58:33.457Z,10.37
